createdAt,value
2023-05-14T00:00:11.331Z,13.35
2023-05-14T00:03:03.441Z,7.15
2023-05-14T00:05:33.946Z,8.57
2023-05-14T00:08:06.323Z,6.28
2023-05-14T00:10:37.041Z,14.75
2023-05-14T00:13:06.749Z,11.20
2023-05-14T00:15:39.780Z,7.55
2023-05-14T00:18:12.621Z,10.05
2023-05-14T00:20:42.943Z,17.10
2023-05-14T00:23:12.602Z,6.90
2023-05-14T00:25:43.541Z,5.75
2023-05-14T00:28:13.260Z,5.80
2023-05-14T00:30:46.445Z,6.40
2023-05-14T00:33:19.806Z,8.68
2023-05-14T00:35:52.983Z,10.65
2023-05-14T00:38:24.271Z,6.63
2023-05-14T00:40:54.018Z,10.45
2023-05-14T00:43:25.646Z,13.48
2023-05-14T00:45:56.232Z,15.98
2023-05-14T00:48:27.361Z,7.30
2023-05-14T00:50:58.827Z,8.38
2023-05-14T00:53:32.949Z,10.20
2023-05-14T00:56:07.271Z,6.85
2023-05-14T00:58:37.083Z,6.97
2023-05-14T01:01:08.426Z,9.82
2023-05-14T01:03:41.130Z,19.77
2023-05-14T01:06:17.632Z,10.55
2023-05-14T01:08:56.569Z,8.82
2023-05-14T01:11:34.276Z,13.90
2023-05-14T01:14:15.783Z,9.13
2023-05-14T01:16:47.704Z,8.23
2023-05-14T01:19:26.309Z,9.82
2023-05-14T01:21:59.493Z,9.55
2023-05-14T01:24:28.523Z,11.85
2023-05-14T01:27:06.300Z,11.48
2023-05-14T01:29:38.907Z,10.93
2023-05-14T01:32:12.923Z,11.75
2023-05-14T01:34:43.390Z,8.23
2023-05-14T01:37:19.601Z,7.80
2023-05-14T01:39:49.665Z,7.95
2023-05-14T01:42:22.608Z,9.35
2023-05-14T01:44:52.618Z,8.45
2023-05-14T01:47:21.822Z,10.45
2023-05-14T01:49:55.266Z,10.70
2023-05-14T01:52:28.452Z,7.55
2023-05-14T01:54:58.790Z,8.80
2023-05-14T01:57:29.589Z,10.10
2023-05-14T01:59:58.719Z,8.57
2023-05-14T02:02:28.904Z,11.90
2023-05-14T02:04:58.572Z,14.23
2023-05-14T02:07:29.838Z,16.25
2023-05-14T02:09:59.501Z,11.13
2023-05-14T02:12:29.930Z,8.35
2023-05-14T02:15:01.587Z,6.97
2023-05-14T02:17:31.735Z,11.25
2023-05-14T02:20:00.798Z,10.75
2023-05-14T02:22:32.278Z,11.77
2023-05-14T02:25:01.517Z,8.45
2023-05-14T02:27:32.109Z,11.15
2023-05-14T02:30:02.004Z,14.82
2023-05-14T02:32:32.493Z,14.35
2023-05-14T02:35:04.302Z,20.55
2023-05-14T02:37:37.777Z,11.98
2023-05-14T02:40:08.507Z,10.50
2023-05-14T02:42:39.461Z,14.38
2023-05-14T02:45:10.350Z,12.18
2023-05-14T02:47:42.394Z,12.80
2023-05-14T02:50:12.444Z,11.05
2023-05-14T02:52:45.357Z,25.20
2023-05-14T02:55:22.300Z,18.40
2023-05-14T02:57:56.252Z,12.30
2023-05-14T03:00:26.194Z,15.73
2023-05-14T03:02:57.418Z,13.05
2023-05-14T03:05:32.194Z,13.40
2023-05-14T03:08:11.159Z,22.73
2023-05-14T03:10:50.095Z,11.93
2023-05-14T03:13:23.537Z,15.60
2023-05-14T03:15:55.190Z,18.40
2023-05-14T03:18:33.123Z,16.77
2023-05-14T03:21:04.734Z,18.63
2023-05-14T03:23:39.660Z,14.88
2023-05-14T03:26:16.880Z,18.05
2023-05-14T03:28:51.667Z,17.08
2023-05-14T03:31:29.063Z,21.35
2023-05-14T03:34:05.143Z,14.75
2023-05-14T03:36:40.904Z,12.10
2023-05-14T03:39:19.923Z,17.02
2023-05-14T03:41:51.411Z,15.13
2023-05-14T03:44:25.842Z,18.75
2023-05-14T03:46:55.651Z,17.02
2023-05-14T03:49:31.219Z,12.80
2023-05-14T03:52:02.918Z,15.77
2023-05-14T03:54:35.228Z,15.77
2023-05-14T03:57:07.203Z,18.95
2023-05-14T03:59:40.383Z,14.77
2023-05-14T04:02:10.487Z,13.98
2023-05-14T04:04:44.486Z,14.77
2023-05-14T04:07:15.064Z,13.20
2023-05-14T04:09:52.686Z,21.83
2023-05-14T04:12:22.564Z,16.77
2023-05-14T04:15:02.257Z,25.70
2023-05-14T04:17:36.930Z,22.92
2023-05-14T04:20:19.139Z,18.85
2023-05-14T04:22:48.438Z,18.05
2023-05-14T04:25:22.313Z,18.38
2023-05-14T04:27:52.110Z,22.30
2023-05-14T04:30:25.749Z,20.38
2023-05-14T04:32:55.843Z,16.30
2023-05-14T04:35:26.616Z,18.88
2023-05-14T04:37:56.419Z,15.57
2023-05-14T04:40:28.471Z,14.38
2023-05-14T04:42:57.728Z,15.93
2023-05-14T04:45:28.772Z,15.65
2023-05-14T04:47:58.450Z,19.45
2023-05-14T04:50:28.706Z,20.75
2023-05-14T04:53:00.976Z,14.32
2023-05-14T04:55:35.626Z,16.80
2023-05-14T04:58:06.127Z,10.77
2023-05-14T05:00:41.624Z,12.95
2023-05-14T05:03:14.996Z,11.25
2023-05-14T05:05:44.891Z,14.80
2023-05-14T05:08:17.191Z,16.52
2023-05-14T05:10:54.510Z,14.90
2023-05-14T05:13:24.201Z,18.17
2023-05-14T05:15:58.948Z,17.83
2023-05-14T05:18:40.478Z,17.42
2023-05-14T05:21:10.002Z,13.93
2023-05-14T05:23:46.671Z,11.65
2023-05-14T05:26:22.632Z,16.50
2023-05-14T05:28:52.963Z,10.00
2023-05-14T05:31:24.529Z,9.93
2023-05-14T05:33:54.134Z,10.52
2023-05-14T05:36:23.790Z,11.98
2023-05-14T05:38:55.299Z,17.75
2023-05-14T05:41:30.177Z,12.65
2023-05-14T05:43:59.275Z,7.13
2023-05-14T05:46:30.210Z,18.20
2023-05-14T05:49:00.361Z,10.63
2023-05-14T05:51:30.631Z,8.27
2023-05-14T05:53:59.951Z,15.75
2023-05-14T05:56:31.342Z,10.90
2023-05-14T05:59:04.329Z,12.98
2023-05-14T06:01:33.840Z,14.00
2023-05-14T06:04:03.999Z,8.85
2023-05-14T06:06:33.992Z,11.25
2023-05-14T06:09:07.086Z,8.50
2023-05-14T06:11:40.456Z,16.70
2023-05-14T06:14:09.914Z,10.80
2023-05-14T06:16:42.667Z,9.00
2023-05-14T06:19:11.652Z,9.82
2023-05-14T06:21:41.343Z,6.50
2023-05-14T06:24:13.563Z,9.38
2023-05-14T06:26:44.601Z,10.30
2023-05-14T06:29:13.851Z,7.30
2023-05-14T06:31:42.735Z,6.68
2023-05-14T06:34:24.020Z,9.48
2023-05-14T06:36:54.382Z,6.32
2023-05-14T06:39:27.563Z,9.40
2023-05-14T06:42:02.928Z,9.68
2023-05-14T06:44:39.243Z,10.38
2023-05-14T06:47:13.676Z,8.00
2023-05-14T06:49:44.017Z,6.82
2023-05-14T06:52:18.060Z,5.40
2023-05-14T06:54:51.798Z,7.05
2023-05-14T06:57:31.047Z,5.18
2023-05-14T07:00:05.319Z,4.53
2023-05-14T07:02:37.186Z,4.57
2023-05-14T07:05:10.949Z,8.63
2023-05-14T07:07:48.930Z,6.93
2023-05-14T07:10:18.506Z,7.25
2023-05-14T07:12:49.177Z,5.97
2023-05-14T07:15:23.303Z,3.70
2023-05-14T07:17:54.357Z,6.72
2023-05-14T07:20:24.297Z,6.80
2023-05-14T07:22:54.659Z,8.85
2023-05-14T07:25:25.938Z,9.07
2023-05-14T07:27:58.812Z,6.38
2023-05-14T07:30:29.799Z,9.50
2023-05-14T07:33:04.464Z,11.57
2023-05-14T07:35:34.156Z,14.60
2023-05-14T07:38:09.416Z,7.60
2023-05-14T07:40:40.442Z,6.97
2023-05-14T07:43:13.577Z,3.97
2023-05-14T07:45:48.476Z,20.60
2023-05-14T07:48:18.452Z,4.50
2023-05-14T07:50:48.161Z,10.93
2023-05-14T07:53:19.485Z,5.60
2023-05-14T07:55:52.468Z,13.93
2023-05-14T07:58:30.438Z,5.57
2023-05-14T08:01:07.680Z,8.65
2023-05-14T08:03:45.163Z,6.50
2023-05-14T08:06:15.341Z,4.00
2023-05-14T08:08:51.353Z,5.93
2023-05-14T08:11:22.096Z,12.18
2023-05-14T08:14:03.706Z,8.65
2023-05-14T08:16:37.383Z,3.47
2023-05-14T08:19:08.357Z,4.78
2023-05-14T08:21:48.726Z,4.03
2023-05-14T08:24:22.276Z,7.22
2023-05-14T08:26:52.653Z,5.78
2023-05-14T08:29:28.854Z,8.32
2023-05-14T08:32:15.613Z,4.00
2023-05-14T08:35:02.859Z,4.03
2023-05-14T08:37:33.800Z,3.83
2023-05-14T08:40:13.544Z,3.20
2023-05-14T08:42:47.475Z,4.78
2023-05-14T08:45:28.958Z,11.82
2023-05-14T08:48:05.563Z,4.88
2023-05-14T08:50:40.237Z,3.28
2023-05-14T08:53:10.936Z,3.58
2023-05-14T08:55:44.237Z,3.80
2023-05-14T08:58:14.868Z,2.85
2023-05-14T09:00:58.502Z,4.03
2023-05-14T09:03:28.888Z,4.07
2023-05-14T09:06:00.330Z,4.85
2023-05-14T09:08:30.068Z,3.60
2023-05-14T09:11:06.779Z,4.82
2023-05-14T09:13:47.340Z,2.35
2023-05-14T09:16:30.571Z,4.20
2023-05-14T09:19:04.058Z,5.93
2023-05-14T09:21:40.610Z,3.80
2023-05-14T09:24:16.990Z,2.33
2023-05-14T09:26:53.181Z,4.15
2023-05-14T09:29:23.018Z,2.85
2023-05-14T09:31:56.600Z,2.83
2023-05-14T09:34:27.349Z,2.70
2023-05-14T09:36:59.101Z,1.70
2023-05-14T09:39:30.679Z,5.03
2023-05-14T09:42:03.911Z,2.28
2023-05-14T09:44:33.988Z,9.02
2023-05-14T09:47:05.756Z,3.25
2023-05-14T09:49:39.900Z,5.97
2023-05-14T09:52:09.900Z,5.55
2023-05-14T09:54:40.148Z,4.30
2023-05-14T09:57:12.397Z,2.38
2023-05-14T09:59:41.826Z,6.78
2023-05-14T10:02:27.543Z,5.30
2023-05-14T10:05:00.569Z,3.60
2023-05-14T10:07:38.930Z,3.60
2023-05-14T10:10:12.009Z,4.80
2023-05-14T10:12:50.634Z,2.90
2023-05-14T10:15:26.302Z,4.82
2023-05-14T10:18:09.593Z,2.22
2023-05-14T10:20:43.418Z,7.25
2023-05-14T10:23:14.678Z,5.55
2023-05-14T10:25:46.232Z,2.08
2023-05-14T10:28:16.326Z,2.83
2023-05-14T10:30:48.043Z,2.60
2023-05-14T10:33:20.207Z,4.72
2023-05-14T10:36:01.406Z,1.83
2023-05-14T10:38:31.751Z,3.35
2023-05-14T10:41:05.553Z,5.60
2023-05-14T10:43:39.488Z,6.97
2023-05-14T10:46:10.574Z,4.45
2023-05-14T10:48:44.244Z,3.03
2023-05-14T10:51:24.932Z,2.90
2023-05-14T10:53:55.009Z,4.72
2023-05-14T10:56:28.043Z,2.58
2023-05-14T10:59:01.696Z,3.70
2023-05-14T11:01:38.493Z,4.75
2023-05-14T11:04:25.703Z,2.63
2023-05-14T11:06:58.351Z,4.25
2023-05-14T11:09:32.461Z,4.88
2023-05-14T11:12:02.076Z,1.83
2023-05-14T11:14:32.180Z,2.08
2023-05-14T11:17:02.070Z,7.25
2023-05-14T11:19:35.637Z,3.50
2023-05-14T11:22:05.665Z,5.80
2023-05-14T11:24:37.720Z,1.77
2023-05-14T11:27:12.827Z,3.08
2023-05-14T11:30:11.396Z,3.50
2023-05-14T11:32:53.455Z,2.58
2023-05-14T11:35:35.803Z,4.22
2023-05-14T11:38:09.290Z,2.30
2023-05-14T11:40:45.867Z,3.40
2023-05-14T11:43:20.042Z,3.88
2023-05-14T11:45:53.463Z,2.80
2023-05-14T11:48:27.521Z,6.53
2023-05-14T11:51:02.632Z,4.47
2023-05-14T11:53:33.472Z,2.63
2023-05-14T11:56:10.275Z,15.25
2023-05-14T11:58:42.876Z,2.90
2023-05-14T12:01:15.554Z,3.10
2023-05-14T12:03:46.468Z,5.35
2023-05-14T12:06:20.124Z,4.97
2023-05-14T12:08:56.084Z,3.22
2023-05-14T12:11:37.816Z,2.13
2023-05-14T12:14:17.965Z,4.68
2023-05-14T12:16:51.111Z,2.17
2023-05-14T12:19:24.486Z,2.92
2023-05-14T12:22:01.722Z,2.10
2023-05-14T12:24:31.924Z,3.22
2023-05-14T12:27:08.013Z,3.53
2023-05-14T12:29:43.326Z,4.65
2023-05-14T12:32:15.434Z,5.15
2023-05-14T12:34:52.912Z,1.73
2023-05-14T12:37:34.266Z,2.90
2023-05-14T12:40:13.429Z,2.88
2023-05-14T12:42:48.246Z,3.72
2023-05-14T12:45:28.957Z,3.03
2023-05-14T12:48:11.363Z,3.22
2023-05-14T12:50:44.517Z,5.53
2023-05-14T12:53:20.979Z,3.70
2023-05-14T12:55:54.091Z,2.05
2023-05-14T12:58:34.068Z,2.05
2023-05-14T13:01:04.514Z,2.00
2023-05-14T13:03:36.304Z,1.90
2023-05-14T13:06:08.132Z,2.30
2023-05-14T13:08:42.649Z,11.55
2023-05-14T13:11:15.717Z,2.75
2023-05-14T13:13:46.911Z,2.85
2023-05-14T13:16:17.259Z,5.38
2023-05-14T13:19:04.287Z,5.80
2023-05-14T13:21:36.339Z,6.03
2023-05-14T13:24:10.826Z,4.35
2023-05-14T13:26:40.836Z,2.33
2023-05-14T13:29:12.040Z,5.38
2023-05-14T13:31:44.404Z,5.50
2023-05-14T13:34:15.056Z,3.33
2023-05-14T13:36:46.927Z,3.50
2023-05-14T13:39:22.866Z,3.97
2023-05-14T13:41:55.437Z,3.47
2023-05-14T13:44:37.207Z,13.70
2023-05-14T13:47:15.654Z,1.83
2023-05-14T13:50:01.439Z,3.60
2023-05-14T13:52:39.969Z,2.75
2023-05-14T13:55:13.570Z,1.60
2023-05-14T13:57:46.437Z,6.40
2023-05-14T14:00:18.146Z,6.00
2023-05-14T14:02:51.071Z,5.07
2023-05-14T14:05:26.675Z,3.70
2023-05-14T14:08:04.420Z,4.85
2023-05-14T14:10:47.843Z,2.55
2023-05-14T14:13:22.231Z,3.97
2023-05-14T14:15:54.337Z,6.63
2023-05-14T14:18:27.384Z,3.95
2023-05-14T14:21:09.441Z,3.70
2023-05-14T14:23:42.176Z,3.55
2023-05-14T14:26:28.316Z,2.75
2023-05-14T14:29:03.918Z,7.72
2023-05-14T14:31:38.668Z,21.00
2023-05-14T14:34:17.778Z,9.00
2023-05-14T14:39:51.392Z,3.88
2023-05-14T14:42:28.729Z,5.05
2023-05-14T14:45:03.392Z,5.35
2023-05-14T14:47:40.657Z,3.45
2023-05-14T14:50:11.644Z,4.95
2023-05-14T14:52:46.088Z,3.50
2023-05-14T14:55:16.184Z,8.48
2023-05-14T14:57:52.036Z,5.60
2023-05-14T15:00:27.321Z,6.13
2023-05-14T15:03:04.864Z,3.28
2023-05-14T15:05:37.909Z,3.55
2023-05-14T15:08:19.680Z,8.48
2023-05-14T15:10:54.595Z,7.25
2023-05-14T15:13:31.260Z,6.00
2023-05-14T15:16:05.552Z,2.95
2023-05-14T15:18:40.878Z,4.78
2023-05-14T15:21:13.075Z,2.10
2023-05-14T15:23:49.811Z,2.83
2023-05-14T15:26:20.601Z,6.40
2023-05-14T15:29:01.165Z,4.47
2023-05-14T15:31:37.381Z,3.97
2023-05-14T15:34:19.954Z,5.95
2023-05-14T15:36:50.793Z,1.67
2023-05-14T15:39:22.398Z,2.63
2023-05-14T15:41:58.483Z,2.22
2023-05-14T15:44:30.723Z,3.88
2023-05-14T15:47:03.430Z,2.72
2023-05-14T15:49:37.770Z,5.22
2023-05-14T15:52:13.292Z,2.78
2023-05-14T15:54:52.035Z,2.47
2023-05-14T15:57:27.203Z,7.82
2023-05-14T16:00:10.786Z,3.35
2023-05-14T16:02:44.891Z,8.48
2023-05-14T16:05:19.528Z,8.07
2023-05-14T16:07:57.587Z,7.72
2023-05-14T16:10:48.638Z,2.30
2023-05-14T16:13:21.620Z,12.55
2023-05-14T16:15:56.941Z,4.68
2023-05-14T16:18:29.973Z,2.90
2023-05-14T16:21:08.367Z,3.45
2023-05-14T16:23:44.321Z,3.63
2023-05-14T16:26:21.629Z,3.08
2023-05-14T16:28:57.030Z,2.45
2023-05-14T16:31:32.918Z,2.97
2023-05-14T16:34:09.996Z,3.40
2023-05-14T16:36:44.908Z,4.18
2023-05-14T16:39:20.212Z,6.43
2023-05-14T16:41:54.398Z,3.10
2023-05-14T16:44:26.367Z,2.67
2023-05-14T16:47:07.322Z,3.05
2023-05-14T16:49:38.640Z,5.50
2023-05-14T16:52:11.567Z,3.17
2023-05-14T16:54:44.039Z,3.47
2023-05-14T16:57:16.860Z,17.05
2023-05-14T16:59:49.252Z,2.00
2023-05-14T17:02:25.294Z,3.95
2023-05-14T17:04:55.669Z,2.80
2023-05-14T17:07:33.544Z,3.65
2023-05-14T17:10:13.425Z,5.03
2023-05-14T17:12:46.486Z,3.95
2023-05-14T17:15:20.210Z,3.85
2023-05-14T17:18:01.623Z,2.17
2023-05-14T17:20:33.456Z,2.75
2023-05-14T17:23:05.807Z,11.73
2023-05-14T17:25:37.657Z,2.33
2023-05-14T17:28:06.747Z,2.33
2023-05-14T17:30:44.407Z,5.88
2023-05-14T17:33:15.124Z,2.58
2023-05-14T17:35:46.336Z,4.15
2023-05-14T17:38:15.839Z,6.22
2023-05-14T17:40:51.094Z,11.77
2023-05-14T17:43:29.807Z,4.70
2023-05-14T17:46:15.031Z,3.58
2023-05-14T17:48:57.426Z,4.50
2023-05-14T17:51:34.103Z,6.15
2023-05-14T17:54:06.520Z,4.03
2023-05-14T17:56:39.726Z,3.17
2023-05-14T17:59:12.723Z,3.05
2023-05-14T18:01:53.192Z,2.97
2023-05-14T18:04:24.428Z,4.20
2023-05-14T18:06:58.957Z,2.60
2023-05-14T18:09:29.105Z,2.65
2023-05-14T18:12:05.932Z,2.95
2023-05-14T18:14:35.562Z,5.18
2023-05-14T18:17:17.584Z,6.63
2023-05-14T18:19:54.034Z,4.30
2023-05-14T18:22:27.274Z,3.90
2023-05-14T18:25:09.752Z,4.93
2023-05-14T18:27:50.697Z,4.40
2023-05-14T18:30:28.008Z,2.88
2023-05-14T18:33:04.713Z,10.85
2023-05-14T18:35:41.976Z,2.20
2023-05-14T18:38:32.096Z,2.85
2023-05-14T18:41:05.642Z,4.72
2023-05-14T18:43:42.248Z,3.00
2023-05-14T18:46:11.848Z,7.88
2023-05-14T18:51:38.198Z,3.75
2023-05-14T18:54:08.555Z,2.30
2023-05-14T18:56:42.863Z,4.90
2023-05-14T18:59:18.673Z,7.07
2023-05-14T19:01:49.629Z,3.10
2023-05-14T19:04:24.187Z,3.65
2023-05-14T19:07:05.226Z,3.75
2023-05-14T19:09:35.228Z,2.80
2023-05-14T19:12:05.564Z,4.03
2023-05-14T19:14:36.203Z,6.00
2023-05-14T19:17:05.705Z,4.55
2023-05-14T19:19:42.545Z,2.97
2023-05-14T19:22:15.646Z,4.22
2023-05-14T19:24:45.502Z,4.93
2023-05-14T19:27:17.849Z,3.30
2023-05-14T19:29:51.523Z,2.28
2023-05-14T19:32:20.118Z,4.70
2023-05-14T19:34:52.216Z,3.70
2023-05-14T19:37:24.178Z,3.20
2023-05-14T19:39:54.208Z,2.55
2023-05-14T19:42:24.856Z,3.15
2023-05-14T19:44:54.419Z,3.60
2023-05-14T19:47:23.148Z,8.07
2023-05-14T19:49:52.288Z,3.47
2023-05-14T19:52:22.425Z,3.33
2023-05-14T19:54:51.813Z,6.32
2023-05-14T19:57:20.832Z,5.95
2023-05-14T19:59:54.413Z,6.35
2023-05-14T20:02:23.453Z,5.78
2023-05-14T20:04:55.498Z,4.90
2023-05-14T20:07:25.990Z,5.47
2023-05-14T20:09:54.849Z,4.55
2023-05-14T20:12:23.815Z,8.43
2023-05-14T20:14:53.067Z,11.05
2023-05-14T20:17:22.004Z,5.15
2023-05-14T20:19:52.383Z,3.90
2023-05-14T20:22:21.198Z,4.75
2023-05-14T20:24:53.056Z,4.50
2023-05-14T20:27:23.180Z,7.63
2023-05-14T20:29:54.143Z,8.63
2023-05-14T20:32:25.150Z,6.60
2023-05-14T20:34:54.622Z,3.90
2023-05-14T20:37:39.266Z,7.10
2023-05-14T20:40:19.581Z,8.82
2023-05-14T20:42:50.972Z,5.03
2023-05-14T20:45:27.853Z,5.90
2023-05-14T20:47:57.029Z,4.57
2023-05-14T20:50:28.292Z,5.65
2023-05-14T20:53:04.817Z,5.45
2023-05-14T20:55:37.275Z,2.90
2023-05-14T20:58:09.207Z,4.75
2023-05-14T21:00:39.368Z,5.82
2023-05-14T21:03:10.045Z,4.32
2023-05-14T21:05:41.745Z,7.63
2023-05-14T21:08:16.621Z,5.13
2023-05-14T21:10:59.969Z,5.65
2023-05-14T21:13:29.403Z,5.50
2023-05-14T21:16:03.299Z,5.22
2023-05-14T21:18:33.151Z,8.15
2023-05-14T21:21:10.660Z,9.45
2023-05-14T21:23:40.693Z,7.03
2023-05-14T21:26:17.051Z,9.80
2023-05-14T21:28:54.973Z,9.85
2023-05-14T21:31:34.476Z,5.32
2023-05-14T21:34:16.641Z,7.65
2023-05-14T21:36:53.620Z,6.25
2023-05-14T21:39:27.113Z,7.93
2023-05-14T21:42:13.733Z,6.38
2023-05-14T21:44:48.735Z,7.57
2023-05-14T21:47:28.272Z,6.13
2023-05-14T21:50:00.483Z,6.80
2023-05-14T21:52:39.852Z,5.15
2023-05-14T21:55:13.961Z,5.25
2023-05-14T21:57:57.572Z,8.32
2023-05-14T22:00:32.783Z,13.18
2023-05-14T22:03:07.291Z,7.13
2023-05-14T22:05:53.131Z,9.38
2023-05-14T22:08:29.385Z,8.70
2023-05-14T22:11:02.683Z,5.18
2023-05-14T22:13:42.534Z,5.97
2023-05-14T22:16:52.394Z,8.68
2023-05-14T22:19:32.819Z,7.38
2023-05-14T22:22:06.652Z,6.78
2023-05-14T22:24:43.789Z,5.70
2023-05-14T22:27:19.222Z,7.90
2023-05-14T22:30:00.897Z,9.43
2023-05-14T22:32:34.072Z,16.42
2023-05-14T22:35:10.339Z,5.63
2023-05-14T22:37:45.452Z,6.90
2023-05-14T22:40:19.761Z,9.95
2023-05-14T22:42:50.208Z,6.38
2023-05-14T22:45:29.137Z,6.95
2023-05-14T22:48:01.714Z,9.05
2023-05-14T22:50:41.402Z,7.30
2023-05-14T22:53:24.418Z,7.13
2023-05-14T22:56:07.128Z,6.93
2023-05-14T22:58:41.039Z,7.32
2023-05-14T23:01:22.408Z,12.30
2023-05-14T23:04:02.965Z,9.02
2023-05-14T23:06:41.200Z,8.57
2023-05-14T23:09:21.115Z,8.25
2023-05-14T23:11:57.059Z,5.07
2023-05-14T23:14:28.619Z,5.18
2023-05-14T23:17:00.660Z,6.88
2023-05-14T23:19:33.384Z,10.18
2023-05-14T23:22:14.426Z,7.82
2023-05-14T23:24:44.293Z,7.25
2023-05-14T23:27:22.957Z,11.77
2023-05-14T23:29:55.430Z,5.95
2023-05-14T23:32:30.714Z,6.97
2023-05-14T23:35:05.257Z,9.50
2023-05-14T23:37:43.291Z,5.88
2023-05-14T23:40:21.602Z,7.95
2023-05-14T23:42:52.518Z,11.57
2023-05-14T23:45:23.059Z,11.43
2023-05-14T23:47:57.976Z,12.05
2023-05-14T23:50:32.390Z,8.07
2023-05-14T23:53:01.963Z,10.00
2023-05-14T23:55:39.817Z,6.00
2023-05-14T23:58:16.872Z,10.40
